Wauzeka, Wisconsin
Current Conditions -  °F | °C
As of 9:53 AM on Thursday 27 Nov 2014 (Local Time) from KOVS Reporting Station
Clear Clear  
Wind Chill:   Ceiling: Unl
Heat Index: 17°   Visibility: 10mi
Dew Point:   Wind: 9mph
Humidity: 59%   Direction: 340°NNW
Pressure: 30.44"   Gusts: NA
Location:  43.09°N, 90.88°W
Report Text: KOVS 271553Z AUTO 34008KT 10SM CLR M08/M15 A3044 RMK AO2 UPB08E17SNE1457 SLP322 P0000 T10831150
Loading
Personal Weather Stations






























Interactive Weather Map New forecast layout! Learn more

10-Day Weather Forecast

Advertisements
Track Severe Weather on mobile